Gillette, WY

10:47 AM MDT on August 21, 2014 (GMT -0600)
RAWS ECHETA WY US | Change Station
CLOSE
Current Station
Personal Weather Station
Location: Gillette, WY
Elevation: 4396 ft
Nearby Weather Stations

Elev 4396 ft 44.47 °N, 105.84 °W | Updated 56 minutes ago

Partly Cloudy
Partly Cloudy
64 °F
Feels Like 64 °F
N
6
Wind Variable Wind from NW
Gusts 10.0 mph

Today
High -- | Low -- °F
--% Chance of Precip.
Yesterday
High -- | Low -- °F
Precip. -- in
6:12 AM 7:58 PM
Waning Crescent, 13% visible
Pressure 29.92 in
Visibility 10.0 miles
Clouds Few 12000 ft
Dew Point 52 °F
Humidity 64%
Rainfall 0.01 in
Snow Depth Not available.
UV 5 out of 12
Pollen 8.50 out of 12
Air Quality Not available.
Flu Activity Not available.
METAR KGCC 211553Z AUTO 36003KT 10SM FEW120 20/12 A3003 RMK AO2 SLP132 T02000117

More Conditions Fewer Conditions

Pressure 29.92 in
Visibility 10.0 miles
Clouds Few 12000 ft
Dew Point 52 °F
Humidity 64%
Rainfall 0.01 in
Snow Depth Not available.
UV 5 out of 12
Pollen 8.50 out of 12
Air Quality Not available.
Flu Activity Not available.
METAR KGCC 211553Z AUTO 36003KT 10SM FEW120 20/12 A3003 RMK AO2 SLP132 T02000117

More Conditions Fewer Conditions

10-Day Weather Forecast

Almanac

Astronomy

Aug. 21, 2014 Rise Set
Actual Time 6:12 AM MDT 7:58 PM MDT
Civil Twilight 5:41 AM MDT 8:29 PM MDT
Nautical Twilight 5:03 AM MDT 9:06 PM MDT
Astronomical Twilight 4:22 AM MDT 9:47 PM MDT
Moon 2:41 AM MDT 5:32 PM MDT
Length of Visible Light 14h 47m
Length of Day
13h 45m
Tomorrow will be 2m 51s shorter.
Waning Crescent, 13% of the Moon is Illuminated
Today
Waning Crescent
Aug 25
New
Sep 2
First Quarter
Sep 8
Full
Sep 15
Last Quarter

Today's Extremes

State Highs State Lows

Community

WunderPhotos

Upload Photos

1,745,957 photos uploaded!

Nearby

Snow Depth

Station Depth Elevation
Casper Mountain 0 in 7850 ft
Reno Hill 0 in 8500 ft
Sylvan Lake 0 in 8420 ft
Big Sandy Opening 0 in 9080 ft
Crow Creek 0 in 8330 ft

Earthquake Activity

City Distance Mag. Time & Date
No recent earthquake activity has been reported nearby.
Minimum magnitude displayed is 2.5.

Coastal Water Temperatures

Place Temperature
No Stations Reporting

Nearby Weather Stations